Luminous Ace — 3FSW4 — position and weather

sailwx.info

Track history (hours):
 
Tides and Currents Weather Stations Pressure Air Temp Water Temp Dewpoint Dewpoint Depression Visibility Wind Speed Wind Dir Waves Ship Positions

Luminous Ace

Last reported at 2018-Aug-21 04:03 UTC. Time now 2018-Aug-21 04:20 UTC.
Position N 19°13' W 096°08'.

Length 188 m; draft 8.5 m.

Type: Cargo ship. MMSI: 370372000.

Date/timePositionNaut miles runAvg speedWind from/ knotsBaromVisibWave heightAir tempDewpointWater temp
2018-Aug-21 04:03N 19°13' W 096°08'0 0.0
2018-Aug-21 03:57N 19°13' W 096°08'0 0.0
2018-Aug-21 03:30N 19°13' W 096°08'0 0.0
2018-Aug-21 03:03N 19°13' W 096°08'0 0.2
2018-Aug-21 03:00N 19°13' W 096°08'0 0.0
2018-Aug-21 02:30N 19°13' W 096°08'0 0.0
2018-Aug-21 02:03N 19°13' W 096°08'0 0.0
2018-Aug-21 02:00N 19°13' W 096°08'0 0.0
2018-Aug-21 01:27N 19°13' W 096°08'0 0.0
2018-Aug-21 01:03N 19°13' W 096°08'0 0.0
2018-Aug-21 01:00N 19°13' W 096°08'0 0.0
2018-Aug-21 00:30N 19°13' W 096°08'0 0.0
2018-Aug-21 00:03N 19°13' W 096°08'0 0.1
2018-Aug-21 00:00N 19°13' W 096°08'0 0.0
2018-Aug-20 23:27N 19°13' W 096°08'0 0.0
2018-Aug-20 23:03N 19°13' W 096°08'0 0.0
2018-Aug-20 23:00N 19°13' W 096°08'0 0.0
2018-Aug-20 22:30N 19°13' W 096°08'0 0.0
2018-Aug-20 22:00N 19°13' W 096°08'0 0.0
2018-Aug-20 21:24N 19°13' W 096°08'0 0.0
2018-Aug-20 21:03N 19°13' W 096°08'0 0.1
2018-Aug-20 21:00N 19°13' W 096°08'0 0.0
2018-Aug-20 20:30N 19°13' W 096°08'0 0.0
2018-Aug-20 20:03N 19°13' W 096°08'0 0.0
2018-Aug-20 20:00N 19°13' W 096°08'0 0.0
2018-Aug-20 19:30N 19°13' W 096°08'0 0.0
2018-Aug-20 19:03N 19°13' W 096°08'0 0.0
2018-Aug-20 19:00N 19°13' W 096°08'0 0.0
2018-Aug-20 18:21N 19°13' W 096°08'1 1.7
2018-Aug-20 18:03N 19°12' W 096°08'0 0.2
2018-Aug-20 18:00N 19°12' W 096°08'3 6.4
2018-Aug-20 17:30N 19°12' W 096°05'3 5.9
2018-Aug-20 17:03N 19°10' W 096°03'0 6.9
2018-Aug-20 16:59N 19°10' W 096°02'1 2.7
2018-Aug-20 16:28N 19°08' W 096°02'0 0.0
2018-Aug-20 15:46N 19°08' W 096°02'0 0.0
2018-Aug-20 15:28N 19°08' W 096°02'0 0.0
2018-Aug-20 14:58N 19°08' W 096°02'0 0.0
2018-Aug-20 14:22N 19°08' W 096°02'0 0.0
2018-Aug-20 13:58N 19°08' W 096°02'0 0.1
2018-Aug-20 13:22N 19°08' W 096°02'0 0.9
2018-Aug-20 13:01N 19°08' W 096°02'0 2.4
2018-Aug-20 13:00N 19°08' W 096°02'2 4.6
2018-Aug-20 12:30N 19°08' W 095°60'4 9.2
2018-Aug-20 12:03N 19°12' W 095°57'0 5.8
2018-Aug-20 12:00N 19°12' W 095°57'611.6
2018-Aug-20 11:30N 19°15' W 095°51'715.4
2018-Aug-20 11:03N 19°15' W 095°44'115.5
2018-Aug-20 11:00N 19°16' W 095°43'815.5
2018-Aug-20 10:30N 19°20' W 095°36'815.2
2018-Aug-20 10:01N 19°24' W 095°30'30715.7
2018-Aug-19 14:28N 21°53' W 090°43'4116.6
2018-Aug-19 12:00N 22°02' W 089°59'1116.4
2018-Aug-19 11:21N 22°05' W 089°48'616.5
2018-Aug-19 11:00N 22°06' W 089°42'59914.4
2018-Aug-17 17:24N 25°31' W 079°27'513.6
2018-Aug-17 17:00N 25°37' W 079°27'713.4
2018-Aug-17 16:30N 25°43' W 079°27'713.3
2018-Aug-17 15:59N 25°50' W 079°27'1213.1
2018-Aug-17 15:06N 26°02' W 079°27'112.9
2018-Aug-17 15:00N 26°03' W 079°27'612.8
2018-Aug-17 14:30N 26°09' W 079°28'  
2018-Aug-15 07:41N 37°16' W 076°08'314.0
2018-Aug-15 07:29N 37°19' W 076°07'714.1
2018-Aug-15 07:00N 37°26' W 076°05'814.0
2018-Aug-15 06:27N 37°33' W 076°02'1014.5
2018-Aug-15 05:48N 37°41' W 076°10'513.8
2018-Aug-15 05:26N 37°45' W 076°11'815.3
2018-Aug-15 04:56N 37°53' W 076°09'614.9
2018-Aug-15 04:30N 37°59' W 076°12'815.8
2018-Aug-15 04:00N 38°07' W 076°14'2916.0
2018-Aug-15 02:12N 38°34' W 076°27'315.4
2018-Aug-15 02:00N 38°37' W 076°26'713.5
2018-Aug-15 01:29N 38°44' W 076°26'714.7
2018-Aug-15 01:00N 38°51' W 076°24'714.6
2018-Aug-15 00:30N 38°58' W 076°23'713.7
2018-Aug-15 00:00N 39°05' W 076°24'611.9
2018-Aug-14 23:30N 39°11' W 076°26'510.3
2018-Aug-14 23:00N 39°13' W 076°32'2 4.1
2018-Aug-14 22:30N 39°14' W 076°34'0 0.0
2018-Aug-14 22:00N 39°15' W 076°34'0 0.0
2018-Aug-14 21:29N 39°14' W 076°34'0 0.0
2018-Aug-14 21:00N 39°14' W 076°34'0 0.0
2018-Aug-14 20:30N 39°15' W 076°34'0 0.0
2018-Aug-14 20:00N 39°15' W 076°34'0 0.0
2018-Aug-14 19:30N 39°14' W 076°34'0 0.0
2018-Aug-14 19:00N 39°14' W 076°34'0 0.0
2018-Aug-14 18:29N 39°14' W 076°34'0 0.0
2018-Aug-14 18:00N 39°14' W 076°34'0 0.0
2018-Aug-14 17:30N 39°14' W 076°34'0 0.0
2018-Aug-14 17:00N 39°14' W 076°34'0 0.0
2018-Aug-14 16:30N 39°15' W 076°34'0 0.0
2018-Aug-14 16:00N 39°15' W 076°34'0 0.0
2018-Aug-14 15:30N 39°15' W 076°34'0 0.0
2018-Aug-14 15:00N 39°14' W 076°34'0 0.0
2018-Aug-14 14:30N 39°15' W 076°34'0 0.0
2018-Aug-14 13:59N 39°14' W 076°34'0 0.0
2018-Aug-14 13:30N 39°14' W 076°34'0 0.0
2018-Aug-14 13:00N 39°14' W 076°34'0 0.0
2018-Aug-14 12:30N 39°14' W 076°34'0 0.0
2018-Aug-14 12:00N 39°14' W 076°34'0 0.0
2018-Aug-14 11:30N 39°14' W 076°34'0 0.0
2018-Aug-14 11:00N 39°14' W 076°34'0 0.0
2018-Aug-14 10:30N 39°14' W 076°34'0 0.0
2018-Aug-14 10:00N 39°14' W 076°34'0 0.0
2018-Aug-14 09:30N 39°15' W 076°34'0 0.0
2018-Aug-14 09:00N 39°15' W 076°34'0 0.9
2018-Aug-14 08:30N 39°15' W 076°33'1 2.5
2018-Aug-14 08:00N 39°14' W 076°32'0 0.0
2018-Aug-14 07:30N 39°14' W 076°32'0 0.0
2018-Aug-14 07:00N 39°14' W 076°32'0 0.0
2018-Aug-14 06:30N 39°14' W 076°32'0 0.0
2018-Aug-14 06:00N 39°14' W 076°32'0 0.0
2018-Aug-14 05:30N 39°14' W 076°32'0 0.0
2018-Aug-14 05:00N 39°14' W 076°32'0 0.0
2018-Aug-14 04:30N 39°14' W 076°32'0 0.0
2018-Aug-14 04:00N 39°14' W 076°32'0 0.0
2018-Aug-14 03:27N 39°14' W 076°32'0 0.0
2018-Aug-14 03:00N 39°14' W 076°32'0 0.0
2018-Aug-14 02:30N 39°14' W 076°32'0 0.0
2018-Aug-14 02:00N 39°14' W 076°32'0 0.0
2018-Aug-14 01:30N 39°14' W 076°32'0 0.0
2018-Aug-14 01:00N 39°14' W 076°32'0 0.0
2018-Aug-14 00:30N 39°14' W 076°32'0 0.0
2018-Aug-14 00:00N 39°14' W 076°32'0 0.0
2018-Aug-13 23:30N 39°14' W 076°32'0 0.0
2018-Aug-13 23:00N 39°14' W 076°32'0 0.0
2018-Aug-13 22:30N 39°14' W 076°32'0 0.0
2018-Aug-13 22:00N 39°14' W 076°32'0 0.0
2018-Aug-13 21:30N 39°14' W 076°32'0 0.0
2018-Aug-13 21:00N 39°14' W 076°32'0 0.0
2018-Aug-13 20:30N 39°14' W 076°32'0 0.0
2018-Aug-13 20:00N 39°14' W 076°32'0 0.0
2018-Aug-13 19:30N 39°14' W 076°32'0 0.0
2018-Aug-13 19:00N 39°14' W 076°32'0 0.0
2018-Aug-13 18:30N 39°14' W 076°32'0 0.0
2018-Aug-13 18:00N 39°14' W 076°32'0 0.0
2018-Aug-13 17:30N 39°14' W 076°32'0 0.0
2018-Aug-13 17:00N 39°14' W 076°32'0 0.0
2018-Aug-13 16:28N 39°14' W 076°32'0 0.0
2018-Aug-13 16:00N 39°14' W 076°32'0 0.0
2018-Aug-13 15:30N 39°14' W 076°32'0 0.0
2018-Aug-13 15:00N 39°14' W 076°32'0 0.0
2018-Aug-13 14:30N 39°14' W 076°32'0 0.0
2018-Aug-13 14:00N 39°14' W 076°32'0 0.0
2018-Aug-13 13:30N 39°14' W 076°32'0 0.0
2018-Aug-13 13:00N 39°14' W 076°32'0 0.0
2018-Aug-13 12:30N 39°14' W 076°32'0 0.0
2018-Aug-13 12:00N 39°14' W 076°32'0 0.0
2018-Aug-13 11:30N 39°14' W 076°32'0 0.0
2018-Aug-13 11:00N 39°14' W 076°32'0 0.0
2018-Aug-13 10:30N 39°14' W 076°32'0 0.0
2018-Aug-13 10:00N 39°14' W 076°32'1 1.2
2018-Aug-13 09:30N 39°14' W 076°32'3 5.5
2018-Aug-13 09:01N 39°12' W 076°30'510.1
2018-Aug-13 08:31N 39°09' W 076°25'713.8
2018-Aug-13 08:01N 39°02' W 076°23'714.9
2018-Aug-13 07:30N 38°55' W 076°23'815.4
2018-Aug-13 07:01N 38°47' W 076°25'1915.3
2018-Aug-13 05:47N 38°28' W 076°23'1212.0
2018-Aug-13 04:45N 38°17' W 076°18'415.1
2018-Aug-13 04:28N 38°13' W 076°15'1215.9
2018-Aug-13 03:44N 38°02' W 076°12'416.1
2018-Aug-13 03:29N 37°58' W 076°11'714.9
2018-Aug-13 03:00N 37°51' W 076°10'1114.2
2018-Aug-13 02:15N 37°40' W 076°09'714.6
2018-Aug-13 01:47N 37°35' W 076°03'  
Track history (hours):
 
Tides and Currents Weather Stations Pressure Air Temp Water Temp Dewpoint Dewpoint Depression Visibility Wind Speed Wind Dir Waves Ship Positions

Luminous Ace

Last reported at 2018-Aug-21 04:03 UTC. Time now 2018-Aug-21 04:20 UTC.
Position N 19°13' W 096°08'.

Length 188 m; draft 8.5 m.

Type: Cargo ship. MMSI: 370372000.

Date/timePositionNaut miles runAvg speedWind from/ knotsBaromVisibWave heightAir tempDewpointWater temp
2018-Aug-21 04:03N 19°13' W 096°08'0 0.0
2018-Aug-21 03:57N 19°13' W 096°08'0 0.0
2018-Aug-21 03:30N 19°13' W 096°08'0 0.0
2018-Aug-21 03:03N 19°13' W 096°08'0 0.2
2018-Aug-21 03:00N 19°13' W 096°08'0 0.0
2018-Aug-21 02:30N 19°13' W 096°08'0 0.0
2018-Aug-21 02:03N 19°13' W 096°08'0 0.0
2018-Aug-21 02:00N 19°13' W 096°08'0 0.0
2018-Aug-21 01:27N 19°13' W 096°08'0 0.0
2018-Aug-21 01:03N 19°13' W 096°08'0 0.0
2018-Aug-21 01:00N 19°13' W 096°08'0 0.0
2018-Aug-21 00:30N 19°13' W 096°08'0 0.0
2018-Aug-21 00:03N 19°13' W 096°08'0 0.1
2018-Aug-21 00:00N 19°13' W 096°08'0 0.0
2018-Aug-20 23:27N 19°13' W 096°08'0 0.0
2018-Aug-20 23:03N 19°13' W 096°08'0 0.0
2018-Aug-20 23:00N 19°13' W 096°08'0 0.0
2018-Aug-20 22:30N 19°13' W 096°08'0 0.0
2018-Aug-20 22:00N 19°13' W 096°08'0 0.0
2018-Aug-20 21:24N 19°13' W 096°08'0 0.0
2018-Aug-20 21:03N 19°13' W 096°08'0 0.1
2018-Aug-20 21:00N 19°13' W 096°08'0 0.0
2018-Aug-20 20:30N 19°13' W 096°08'0 0.0
2018-Aug-20 20:03N 19°13' W 096°08'0 0.0
2018-Aug-20 20:00N 19°13' W 096°08'0 0.0
2018-Aug-20 19:30N 19°13' W 096°08'0 0.0
2018-Aug-20 19:03N 19°13' W 096°08'0 0.0
2018-Aug-20 19:00N 19°13' W 096°08'0 0.0
2018-Aug-20 18:21N 19°13' W 096°08'1 1.7
2018-Aug-20 18:03N 19°12' W 096°08'0 0.2
2018-Aug-20 18:00N 19°12' W 096°08'3 6.4
2018-Aug-20 17:30N 19°12' W 096°05'3 5.9
2018-Aug-20 17:03N 19°10' W 096°03'0 6.9
2018-Aug-20 16:59N 19°10' W 096°02'1 2.7
2018-Aug-20 16:28N 19°08' W 096°02'0 0.0
2018-Aug-20 15:46N 19°08' W 096°02'0 0.0
2018-Aug-20 15:28N 19°08' W 096°02'0 0.0
2018-Aug-20 14:58N 19°08' W 096°02'0 0.0
2018-Aug-20 14:22N 19°08' W 096°02'0 0.0
2018-Aug-20 13:58N 19°08' W 096°02'0 0.1
2018-Aug-20 13:22N 19°08' W 096°02'0 0.9
2018-Aug-20 13:01N 19°08' W 096°02'0 2.4
2018-Aug-20 13:00N 19°08' W 096°02'2 4.6
2018-Aug-20 12:30N 19°08' W 095°60'4 9.2
2018-Aug-20 12:03N 19°12' W 095°57'0 5.8
2018-Aug-20 12:00N 19°12' W 095°57'611.6
2018-Aug-20 11:30N 19°15' W 095°51'715.4
2018-Aug-20 11:03N 19°15' W 095°44'115.5
2018-Aug-20 11:00N 19°16' W 095°43'815.5
2018-Aug-20 10:30N 19°20' W 095°36'815.2
2018-Aug-20 10:01N 19°24' W 095°30'30715.7
2018-Aug-19 14:28N 21°53' W 090°43'4116.6
2018-Aug-19 12:00N 22°02' W 089°59'1116.4
2018-Aug-19 11:21N 22°05' W 089°48'616.5
2018-Aug-19 11:00N 22°06' W 089°42'59914.4
2018-Aug-17 17:24N 25°31' W 079°27'513.6
2018-Aug-17 17:00N 25°37' W 079°27'713.4
2018-Aug-17 16:30N 25°43' W 079°27'713.3
2018-Aug-17 15:59N 25°50' W 079°27'1213.1
2018-Aug-17 15:06N 26°02' W 079°27'112.9
2018-Aug-17 15:00N 26°03' W 079°27'612.8
2018-Aug-17 14:30N 26°09' W 079°28'  
2018-Aug-15 07:41N 37°16' W 076°08'314.0
2018-Aug-15 07:29N 37°19' W 076°07'714.1
2018-Aug-15 07:00N 37°26' W 076°05'814.0
2018-Aug-15 06:27N 37°33' W 076°02'1014.5
2018-Aug-15 05:48N 37°41' W 076°10'513.8
2018-Aug-15 05:26N 37°45' W 076°11'815.3
2018-Aug-15 04:56N 37°53' W 076°09'614.9
2018-Aug-15 04:30N 37°59' W 076°12'815.8
2018-Aug-15 04:00N 38°07' W 076°14'2916.0
2018-Aug-15 02:12N 38°34' W 076°27'315.4
2018-Aug-15 02:00N 38°37' W 076°26'713.5
2018-Aug-15 01:29N 38°44' W 076°26'714.7
2018-Aug-15 01:00N 38°51' W 076°24'714.6
2018-Aug-15 00:30N 38°58' W 076°23'713.7
2018-Aug-15 00:00N 39°05' W 076°24'611.9
2018-Aug-14 23:30N 39°11' W 076°26'510.3
2018-Aug-14 23:00N 39°13' W 076°32'2 4.1
2018-Aug-14 22:30N 39°14' W 076°34'0 0.0
2018-Aug-14 22:00N 39°15' W 076°34'0 0.0
2018-Aug-14 21:29N 39°14' W 076°34'0 0.0
2018-Aug-14 21:00N 39°14' W 076°34'0 0.0
2018-Aug-14 20:30N 39°15' W 076°34'0 0.0
2018-Aug-14 20:00N 39°15' W 076°34'0 0.0
2018-Aug-14 19:30N 39°14' W 076°34'0 0.0
2018-Aug-14 19:00N 39°14' W 076°34'0 0.0
2018-Aug-14 18:29N 39°14' W 076°34'0 0.0
2018-Aug-14 18:00N 39°14' W 076°34'0 0.0
2018-Aug-14 17:30N 39°14' W 076°34'0 0.0
2018-Aug-14 17:00N 39°14' W 076°34'0 0.0
2018-Aug-14 16:30N 39°15' W 076°34'0 0.0
2018-Aug-14 16:00N 39°15' W 076°34'0 0.0
2018-Aug-14 15:30N 39°15' W 076°34'0 0.0
2018-Aug-14 15:00N 39°14' W 076°34'0 0.0
2018-Aug-14 14:30N 39°15' W 076°34'0 0.0
2018-Aug-14 13:59N 39°14' W 076°34'0 0.0
2018-Aug-14 13:30N 39°14' W 076°34'0 0.0
2018-Aug-14 13:00N 39°14' W 076°34'0 0.0
2018-Aug-14 12:30N 39°14' W 076°34'0 0.0
2018-Aug-14 12:00N 39°14' W 076°34'0 0.0
2018-Aug-14 11:30N 39°14' W 076°34'0 0.0
2018-Aug-14 11:00N 39°14' W 076°34'0 0.0
2018-Aug-14 10:30N 39°14' W 076°34'0 0.0
2018-Aug-14 10:00N 39°14' W 076°34'0 0.0
2018-Aug-14 09:30N 39°15' W 076°34'0 0.0
2018-Aug-14 09:00N 39°15' W 076°34'0 0.9
2018-Aug-14 08:30N 39°15' W 076°33'1 2.5
2018-Aug-14 08:00N 39°14' W 076°32'0 0.0
2018-Aug-14 07:30N 39°14' W 076°32'0 0.0
2018-Aug-14 07:00N 39°14' W 076°32'0 0.0
2018-Aug-14 06:30N 39°14' W 076°32'0 0.0
2018-Aug-14 06:00N 39°14' W 076°32'0 0.0
2018-Aug-14 05:30N 39°14' W 076°32'0 0.0
2018-Aug-14 05:00N 39°14' W 076°32'0 0.0
2018-Aug-14 04:30N 39°14' W 076°32'0 0.0
2018-Aug-14 04:00N 39°14' W 076°32'0 0.0
2018-Aug-14 03:27N 39°14' W 076°32'0 0.0
2018-Aug-14 03:00N 39°14' W 076°32'0 0.0
2018-Aug-14 02:30N 39°14' W 076°32'0 0.0
2018-Aug-14 02:00N 39°14' W 076°32'0 0.0
2018-Aug-14 01:30N 39°14' W 076°32'0 0.0
2018-Aug-14 01:00N 39°14' W 076°32'0 0.0
2018-Aug-14 00:30N 39°14' W 076°32'0 0.0
2018-Aug-14 00:00N 39°14' W 076°32'0 0.0
2018-Aug-13 23:30N 39°14' W 076°32'0 0.0
2018-Aug-13 23:00N 39°14' W 076°32'0 0.0
2018-Aug-13 22:30N 39°14' W 076°32'0 0.0
2018-Aug-13 22:00N 39°14' W 076°32'0 0.0
2018-Aug-13 21:30N 39°14' W 076°32'0 0.0
2018-Aug-13 21:00N 39°14' W 076°32'0 0.0
2018-Aug-13 20:30N 39°14' W 076°32'0 0.0
2018-Aug-13 20:00N 39°14' W 076°32'0 0.0
2018-Aug-13 19:30N 39°14' W 076°32'0 0.0
2018-Aug-13 19:00N 39°14' W 076°32'0 0.0
2018-Aug-13 18:30N 39°14' W 076°32'0 0.0
2018-Aug-13 18:00N 39°14' W 076°32'0 0.0
2018-Aug-13 17:30N 39°14' W 076°32'0 0.0
2018-Aug-13 17:00N 39°14' W 076°32'0 0.0
2018-Aug-13 16:28N 39°14' W 076°32'0 0.0
2018-Aug-13 16:00N 39°14' W 076°32'0 0.0
2018-Aug-13 15:30N 39°14' W 076°32'0 0.0
2018-Aug-13 15:00N 39°14' W 076°32'0 0.0
2018-Aug-13 14:30N 39°14' W 076°32'0 0.0
2018-Aug-13 14:00N 39°14' W 076°32'0 0.0
2018-Aug-13 13:30N 39°14' W 076°32'0 0.0
2018-Aug-13 13:00N 39°14' W 076°32'0 0.0
2018-Aug-13 12:30N 39°14' W 076°32'0 0.0
2018-Aug-13 12:00N 39°14' W 076°32'0 0.0
2018-Aug-13 11:30N 39°14' W 076°32'0 0.0
2018-Aug-13 11:00N 39°14' W 076°32'0 0.0
2018-Aug-13 10:30N 39°14' W 076°32'0 0.0
2018-Aug-13 10:00N 39°14' W 076°32'1 1.2
2018-Aug-13 09:30N 39°14' W 076°32'3 5.5
2018-Aug-13 09:01N 39°12' W 076°30'510.1
2018-Aug-13 08:31N 39°09' W 076°25'713.8
2018-Aug-13 08:01N 39°02' W 076°23'714.9
2018-Aug-13 07:30N 38°55' W 076°23'815.4
2018-Aug-13 07:01N 38°47' W 076°25'1915.3
2018-Aug-13 05:47N 38°28' W 076°23'1212.0
2018-Aug-13 04:45N 38°17' W 076°18'415.1
2018-Aug-13 04:28N 38°13' W 076°15'1215.9
2018-Aug-13 03:44N 38°02' W 076°12'416.1
2018-Aug-13 03:29N 37°58' W 076°11'714.9
2018-Aug-13 03:00N 37°51' W 076°10'1114.2
2018-Aug-13 02:15N 37°40' W 076°09'714.6
2018-Aug-13 01:47N 37°35' W 076°03'  

Dump ship's entire track history